This is the latest recevied weather packets stored in our database for station/object F8BJE-13. If no packets are shown the sender has not sent any weather packets the latest 10 day(s).
| Time | Temp. | Humidity | Pressure | Rain* | Wind** | Luminosity | Snow |
|---|---|---|---|---|---|---|---|
| 1787601603 | 16.67° C | 92% | 1013.5 hPa | 3.05 mm | - | - | - |
| 1787599803 | 16.67° C | 87% | 1014.2 hPa | 3.81 mm | - | - | - |
| 1787598003 | 17.22° C | 81% | 1014.3 hPa | 1.52 mm | - | - | - |
| 1787596203 | 18.89° C | 72% | 1013.1 hPa | 0 mm | - | - | - |
| 1787594403 | 18.89° C | 71% | 1011.6 hPa | 0.25 mm | - | - | - |
| 1787592603 | 19.44° C | 70% | 1012.3 hPa | 0.51 mm | - | - | - |
| 1787590803 | 20.56° C | 63% | 1012.7 hPa | 0.51 mm | - | - | - |
| 1787589003 | 22.22° C | 60% | 1012.4 hPa | 0.25 mm | - | - | - |
| 1787587203 | 25.56° C | 41% | 1012.5 hPa | 0 mm | - | - | - |
| 1787585403 | 27.78° C | 35% | 1012.8 hPa | 0 mm | - | - | - |
| 1787583603 | 28.89° C | 32% | 1013.4 hPa | 0 mm | - | - | - |
| 1787581803 | 28.33° C | 33% | 1014.2 hPa | 0 mm | - | - | - |
| 1787580003 | 29.44° C | 30% | 1014.5 hPa | 0 mm | - | - | - |
| 1787578203 | 29.44° C | 31% | 1015 hPa | 0 mm | - | - | - |
| 1787576403 | 28.33° C | 33% | 1015.6 hPa | 0 mm | - | - | - |
| 1787574603 | 29.44° C | 32% | 1016.4 hPa | 0 mm | - | - | - |
| 1787572803 | 28.33° C | 34% | 1016.5 hPa | 0 mm | - | - | - |
| 1787571003 | 26.67° C | 37% | 1017.3 hPa | 0 mm | - | - | - |
| 1787569203 | 25.56° C | 41% | 1017.7 hPa | 0.25 mm | - | - | - |
| 1787567403 | 23.33° C | 49% | 1018 hPa | 0.25 mm | - | - | - |
| 1787565603 | 18.33° C | 65% | 1018.2 hPa | 0 mm | - | - | - |
| 1787563803 | 16.67° C | 66% | 1017.5 hPa | 0 mm | - | - | - |
| 1787562003 | 19.44° C | 52% | 1019.4 hPa | 0 mm | - | - | - |
| 1787560203 | 20.56° C | 47% | 1019.7 hPa | 0 mm | - | - | - |
| 1787558403 | 21.11° C | 48% | 1019.1 hPa | 0 mm | - | - | - |
* Rain latest hour (hover to see other rain measurements)
** Current wind speed in m/s (hover to see current wind gust speed)